Time;durP1;ratioP1;P1;durP2;ratioP2;P2;SDS_P1;SDS_P2;PMS_P1;PMS_P2;Temp;Humidity;BMP_temperature;BMP_pressure;BME280_temperature;BME280_humidity;BME280_pressure;Samples;Min_cycle;Max_cycle;Signal;HPM_P1;HPM_P2
2022/06/03 00:02:13;;;;;;;3.20;1.92;;;15.90;63.70;;;;;;5045639;28;20505;-76
2022/06/03 00:05:18;;;;;;;2.65;1.40;;;15.90;64.00;;;;;;5044562;28;20555;-78
2022/06/03 00:08:20;;;;;;;2.83;1.92;;;15.80;64.20;;;;;;5043332;28;20467;-76
2022/06/03 00:11:17;;;;;;;1.88;1.30;;;15.70;64.60;;;;;;5042138;28;20028;-76
2022/06/03 00:13:54;;;;;;;1.60;1.00;;;15.70;64.90;;;;;;5041317;28;20079;-76
2022/06/03 00:16:38;;;;;;;2.65;1.58;;;15.70;64.80;;;;;;5041957;28;20036;-76
2022/06/03 00:19:35;;;;;;;5.00;2.60;;;15.60;65.10;;;;;;5044962;28;20622;-76
2022/06/03 00:22:12;;;;;;;4.63;2.67;;;15.60;65.40;;;;;;5041215;28;20025;-76
2022/06/03 00:24:50;;;;;;;5.15;2.40;;;15.60;65.40;;;;;;5041322;28;20471;-78
2022/06/03 00:27:47;;;;;;;4.72;2.45;;;15.60;65.50;;;;;;5039623;28;20574;-78
2022/06/03 00:30:37;;;;;;;6.35;2.42;;;15.50;65.70;;;;;;5040443;28;20029;-77
2022/06/03 00:33:32;;;;;;;6.05;3.08;;;15.50;65.70;;;;;;5043238;28;20028;-77
2022/06/03 00:36:00;;;;;;;8.68;3.88;;;15.50;65.80;;;;;;4986578;28;20038;-76
2022/06/03 00:38:54;;;;;;;5.13;2.60;;;15.50;66.00;;;;;;5047204;28;20021;-77
2022/06/03 00:41:48;;;;;;;4.53;2.70;;;15.40;66.10;;;;;;5045953;28;20180;-76
2022/06/03 00:44:33;;;;;;;4.82;2.35;;;15.50;66.20;;;;;;5048809;28;20036;-77
2022/06/03 00:47:31;;;;;;;2.60;1.60;;;15.40;66.20;;;;;;5050117;28;20036;-77
2022/06/03 00:50:18;;;;;;;5.65;2.75;;;15.40;65.80;;;;;;5048689;28;20111;-77
2022/06/03 00:53:00;;;;;;;4.50;2.42;;;15.30;66.50;;;;;;5050191;28;20031;-77
2022/06/03 00:55:42;;;;;;;6.70;2.92;;;15.30;66.50;;;;;;5050128;28;20024;-76
2022/06/03 00:58:26;;;;;;;4.63;2.28;;;15.30;66.90;;;;;;5050158;28;20025;-78
2022/06/03 01:01:08;;;;;;;3.47;2.00;;;15.30;66.50;;;;;;5050739;28;20059;-77
2022/06/03 01:04:12;;;;;;;3.15;1.30;;;15.30;66.50;;;;;;5050704;28;20036;-77
2022/06/03 01:07:06;;;;;;;3.97;2.58;;;15.30;66.20;;;;;;5043000;28;20061;-77
2022/06/03 01:10:14;;;;;;;4.25;2.20;;;15.30;66.70;;;;;;5050389;28;20096;-76
2022/06/03 01:13:12;;;;;;;4.70;2.53;;;15.20;66.60;;;;;;5053807;28;20055;-77
2022/06/03 01:15:56;;;;;;;3.00;2.08;;;15.20;66.70;;;;;;5048178;28;20064;-77
2022/06/03 01:18:41;;;;;;;3.85;2.22;;;15.10;66.80;;;;;;5049807;28;20756;-77
2022/06/03 01:21:31;;;;;;;3.63;2.30;;;15.10;67.00;;;;;;5049050;28;20021;-77
2022/06/03 01:24:15;;;;;;;;;;;15.10;67.10;;;;;;5050523;28;20025;-77
2022/06/03 01:27:02;;;;;;;5.95;3.05;;;15.10;66.90;;;;;;5049957;28;19905;-77
2022/06/03 01:29:33;;;;;;;5.32;3.20;;;15.10;67.40;;;;;;5049058;28;20085;-77
2022/06/03 01:32:36;;;;;;;3.10;1.60;;;15.00;67.60;;;;;;5049838;28;20031;-76
2022/06/03 01:35:23;;;;;;;3.80;1.55;;;15.00;67.00;;;;;;5049137;28;20777;-76
2022/06/03 01:37:54;;;;;;;5.38;3.08;;;15.00;67.00;;;;;;5048584;28;20036;-77
2022/06/03 01:40:35;;;;;;;4.65;2.28;;;15.00;67.70;;;;;;5049285;28;20041;-77
2022/06/03 01:43:19;;;;;;;5.85;3.17;;;15.00;67.70;;;;;;5049031;28;20021;-77
2022/06/03 01:46:12;;;;;;;3.55;2.17;;;14.90;67.60;;;;;;5049076;28;20063;-77
2022/06/03 01:48:48;;;;;;;6.65;3.13;;;15.00;67.60;;;;;;5049547;28;20033;-77
2022/06/03 01:51:51;;;;;;;4.13;2.30;;;15.00;67.70;;;;;;5041348;28;20033;-76
2022/06/03 01:54:38;;;;;;;5.63;3.25;;;15.00;68.00;;;;;;5028080;28;20029;-77
2022/06/03 01:57:25;;;;;;;2.53;1.30;;;15.00;67.90;;;;;;5046876;28;20031;-76
2022/06/03 02:00:28;;;;;;;1.95;1.33;;;15.00;67.20;;;;;;5051647;28;20043;-76
2022/06/03 02:03:17;;;;;;;5.20;2.97;;;15.00;66.80;;;;;;5040830;28;20072;-77
2022/06/03 02:06:03;;;;;;;1.67;1.08;;;15.00;67.20;;;;;;5032287;28;20511;-76
2022/06/03 02:09:02;;;;;;;2.50;1.35;;;15.00;66.60;;;;;;5029891;28;20025;-76
2022/06/03 02:12:01;;;;;;;5.17;2.63;;;15.00;66.80;;;;;;5040554;28;20452;-77
2022/06/03 02:15:00;;;;;;;5.88;3.78;;;15.00;67.20;;;;;;5049261;28;20037;-77
2022/06/03 02:17:36;;;;;;;3.42;1.88;;;15.00;67.90;;;;;;5048580;28;20040;-76
2022/06/03 02:20:34;;;;;;;3.33;2.25;;;15.10;67.00;;;;;;5049516;28;20025;-76
2022/06/03 02:23:39;;;;;;;4.70;2.72;;;15.10;67.10;;;;;;5049902;28;20033;-76
2022/06/03 02:26:30;;;;;;;3.60;1.90;;;15.00;67.40;;;;;;4978146;28;20053;-77
2022/06/03 02:32:35;;;;;;;5.13;2.45;;;15.00;67.50;;;;;;5049594;28;20044;-77
2022/06/03 02:35:19;;;;;;;3.10;1.85;;;15.00;67.60;;;;;;5049106;28;20052;-76
2022/06/03 02:37:48;;;;;;;4.47;2.20;;;15.00;67.20;;;;;;5048661;28;20028;-76
2022/06/03 02:40:37;;;;;;;2.80;1.57;;;15.00;67.60;;;;;;5036851;28;20029;-77
2022/06/03 02:43:19;;;;;;;3.97;2.55;;;15.00;67.30;;;;;;5041457;28;20309;-77
2022/06/03 02:46:23;;;;;;;4.97;2.72;;;15.10;67.30;;;;;;5048973;28;20233;-77
2022/06/03 02:49:07;;;;;;;2.63;1.40;;;15.00;67.60;;;;;;5050440;28;20053;-77
2022/06/03 02:51:41;;;;;;;2.15;1.20;;;15.00;67.10;;;;;;5052815;28;20103;-77
2022/06/03 02:54:16;;;;;;;3.78;2.13;;;15.00;66.70;;;;;;5051386;28;20029;-77
2022/06/03 02:56:55;;;;;;;3.53;2.05;;;15.00;67.10;;;;;;5053220;28;20495;-76
2022/06/03 02:59:40;;;;;;;3.85;2.28;;;15.00;67.10;;;;;;5054206;28;20424;-77
2022/06/03 03:02:36;;;;;;;3.70;1.95;;;15.00;67.30;;;;;;5052937;28;20032;-77
2022/06/03 03:05:39;;;;;;;2.53;1.88;;;15.00;67.10;;;;;;5052787;28;20021;-76
2022/06/03 03:08:30;;;;;;;1.83;1.35;;;15.00;67.10;;;;;;5054209;28;20630;-77
2022/06/03 03:11:04;;;;;;;3.97;1.95;;;14.90;66.70;;;;;;5053262;28;20417;-76
2022/06/03 03:14:19;;;;;;;4.57;2.90;;;14.90;66.80;;;;;;5052708;28;20021;-77
2022/06/03 03:17:26;;;;;;;2.92;1.25;;;14.90;67.40;;;;;;5047690;28;20120;-78
2022/06/03 03:20:22;;;;;;;3.05;2.13;;;14.90;67.30;;;;;;5049577;28;20037;-77
2022/06/03 03:23:03;;;;;;;6.40;3.80;;;14.80;67.50;;;;;;5052373;28;20053;-77
2022/06/03 03:25:53;;;;;;;2.78;1.52;;;14.80;67.90;;;;;;5051822;28;20033;-77
2022/06/03 03:28:48;;;;;;;3.33;1.80;;;14.80;67.50;;;;;;5051629;28;20021;-77
2022/06/03 03:31:52;;;;;;;3.25;1.90;;;14.80;67.60;;;;;;5051562;28;20021;-77
2022/06/03 03:34:27;;;;;;;3.15;1.90;;;14.70;67.50;;;;;;5031545;28;20052;-76
2022/06/03 03:37:14;;;;;;;5.30;2.13;;;14.70;67.50;;;;;;5051410;28;20017;-77
2022/06/03 03:40:13;;;;;;;1.63;0.98;;;14.70;67.60;;;;;;5051598;28;20029;-77
2022/06/03 03:43:07;;;;;;;4.95;2.83;;;14.70;67.40;;;;;;5043657;28;20025;-77
2022/06/03 03:45:59;;;;;;;1.85;1.02;;;14.60;68.10;;;;;;5019683;28;20045;-77
2022/06/03 03:48:58;;;;;;;5.50;2.17;;;14.60;67.90;;;;;;5051773;28;20486;-76
2022/06/03 03:51:45;;;;;;;2.83;1.60;;;14.60;68.30;;;;;;5047745;28;20479;-77
2022/06/03 03:54:29;;;;;;;6.00;3.70;;;14.60;68.00;;;;;;5051382;28;20029;-77
2022/06/03 03:57:28;;;;;;;2.38;1.27;;;14.70;68.60;;;;;;5057182;28;20044;-77
2022/06/03 03:59:59;;;;;;;2.78;1.60;;;14.70;67.80;;;;;;5052949;28;20471;-77
2022/06/03 04:02:44;;;;;;;2.45;1.42;;;14.70;67.50;;;;;;5052860;28;20368;-77
2022/06/03 04:05:44;;;;;;;4.80;2.60;;;14.70;67.50;;;;;;5052446;28;20103;-77
2022/06/03 04:08:39;;;;;;;3.70;2.10;;;14.70;67.70;;;;;;5051185;28;20029;-78
2022/06/03 04:11:42;;;;;;;3.50;2.33;;;14.60;67.90;;;;;;5047668;28;20120;-76
2022/06/03 04:14:38;;;;;;;5.78;4.30;;;14.60;68.40;;;;;;5031985;28;20022;-76
2022/06/03 04:17:31;;;;;;;5.63;3.15;;;14.50;69.10;;;;;;5050563;28;20028;-76
2022/06/03 04:20:08;;;;;;;1.55;1.23;;;14.50;69.00;;;;;;5051455;28;20033;-77
2022/06/03 04:22:59;;;;;;;4.63;2.20;;;14.50;68.40;;;;;;5048953;28;20033;-76
2022/06/03 04:25:49;;;;;;;4.82;2.15;;;14.50;68.70;;;;;;5050252;28;20079;-76
2022/06/03 04:28:53;;;;;;;3.00;1.70;;;14.50;68.70;;;;;;5047169;28;20029;-76
2022/06/03 04:31:36;;;;;;;6.53;3.30;;;14.50;68.40;;;;;;5026540;28;20048;-76
2022/06/03 04:34:42;;;;;;;4.43;2.00;;;14.50;69.00;;;;;;5051336;28;20040;-76
2022/06/03 04:37:45;;;;;;;7.25;3.30;;;14.50;68.50;;;;;;5045847;28;20036;-77
2022/06/03 04:40:33;;;;;;;4.40;1.88;;;14.50;69.00;;;;;;5044012;28;20049;-77
2022/06/03 04:43:35;;;;;;;6.68;4.60;;;14.60;68.70;;;;;;5051417;28;20056;-77
2022/06/03 04:46:34;;;;;;;4.85;3.30;;;14.50;69.20;;;;;;4969657;28;20026;-77
2022/06/03 04:49:47;;;;;;;6.18;3.65;;;14.60;69.30;;;;;;5041656;28;20112;-77
2022/06/03 04:52:37;;;;;;;5.38;2.30;;;14.60;69.00;;;;;;5049852;28;20055;-77
2022/06/03 04:55:21;;;;;;;7.97;3.55;;;14.70;68.00;;;;;;5051841;28;20044;-78
2022/06/03 04:58:25;;;;;;;6.00;3.42;;;14.80;68.60;;;;;;5045720;28;20033;-76
2022/06/03 05:01:22;;;;;;;4.95;2.83;;;14.90;68.10;;;;;;5029339;28;20037;-76
2022/06/03 05:04:39;;;;;;;5.32;2.97;;;15.00;68.10;;;;;;5052445;28;20060;-76
2022/06/03 05:07:10;;;;;;;3.95;2.20;;;15.00;67.40;;;;;;5049919;28;20417;-77
2022/06/03 05:10:18;;;;;;;4.65;2.58;;;15.10;67.30;;;;;;5050652;28;20025;-77
2022/06/03 05:13:06;;;;;;;6.47;3.75;;;15.20;67.10;;;;;;5024402;28;20033;-76
2022/06/03 05:16:00;;;;;;;6.90;3.00;;;15.20;66.90;;;;;;5051451;28;20024;-77
2022/06/03 05:19:04;;;;;;;4.15;1.80;;;15.30;67.00;;;;;;5048370;28;20823;-78
2022/06/03 05:21:45;;;;;;;6.28;3.63;;;15.40;66.40;;;;;;5030909;28;20045;-77
2022/06/03 05:24:48;;;;;;;5.35;3.35;;;15.50;66.60;;;;;;5049321;28;20075;-76
2022/06/03 05:27:31;;;;;;;4.40;2.00;;;15.60;66.60;;;;;;5035493;28;20116;-76
2022/06/03 05:30:27;;;;;;;5.82;2.55;;;15.60;65.80;;;;;;5048429;28;21059;-76
2022/06/03 05:33:26;;;;;;;5.35;3.05;;;15.70;65.50;;;;;;5050710;28;20442;-77
2022/06/03 05:36:17;;;;;;;5.07;3.10;;;15.80;65.20;;;;;;5044896;28;20056;-76
2022/06/03 05:38:45;;;;;;;5.40;3.45;;;15.80;65.10;;;;;;5051167;28;20021;-76
2022/06/03 05:44:30;;;;;;;5.40;2.35;;;15.90;65.10;;;;;;5044115;28;20132;-77
2022/06/03 05:47:15;;;;;;;5.00;2.83;;;16.10;64.30;;;;;;5042613;28;20098;-78
2022/06/03 05:50:05;;;;;;;6.40;4.28;;;16.10;64.40;;;;;;5046981;28;20017;-76
2022/06/03 05:53:09;;;;;;;3.60;2.55;;;16.10;64.40;;;;;;5037580;28;20032;-76
2022/06/03 05:56:01;;;;;;;3.80;2.08;;;16.20;64.30;;;;;;5046120;28;20017;-77
2022/06/03 05:58:34;;;;;;;5.93;2.85;;;16.30;63.50;;;;;;5042489;28;20033;-77
2022/06/03 06:01:37;;;;;;;5.32;3.15;;;16.40;63.30;;;;;;5049075;28;20057;-77
2022/06/03 06:04:09;;;;;;;5.45;2.67;;;16.50;63.00;;;;;;5040809;28;20022;-77
2022/06/03 06:07:03;;;;;;;5.43;2.90;;;16.60;62.90;;;;;;5043266;28;20035;-78
2022/06/03 06:09:44;;;;;;;4.47;2.78;;;16.70;62.80;;;;;;5041528;28;20456;-77
2022/06/03 06:12:57;;;;;;;6.32;3.05;;;16.70;62.80;;;;;;5039904;28;20021;-77
2022/06/03 06:15:59;;;;;;;7.45;4.10;;;16.80;62.50;;;;;;5039167;28;20041;-77
2022/06/03 06:18:46;;;;;;;3.63;2.15;;;16.90;62.70;;;;;;5039327;28;20032;-78
2022/06/03 06:21:38;;;;;;;6.88;3.53;;;17.00;61.80;;;;;;5049288;28;20021;-77
2022/06/03 06:24:39;;;;;;;4.28;1.90;;;17.20;62.00;;;;;;5052204;28;20526;-77
2022/06/03 06:27:22;;;;;;;5.35;2.97;;;17.40;61.70;;;;;;5043157;28;20028;-75
2022/06/03 06:30:07;;;;;;;8.07;4.13;;;17.50;60.80;;;;;;5053896;28;20107;-76
2022/06/03 06:32:56;;;;;;;5.35;3.88;;;17.50;60.40;;;;;;5053269;28;20024;-77
2022/06/03 06:35:55;;;;;;;7.60;4.78;;;17.50;60.70;;;;;;5053255;28;20036;-76
2022/06/03 06:38:35;;;;;;;6.90;3.83;;;17.50;61.00;;;;;;5051134;28;20029;-76
2022/06/03 06:41:23;;;;;;;5.25;3.10;;;17.60;61.30;;;;;;5045545;28;20059;-76
2022/06/03 06:43:55;;;;;;;3.10;1.85;;;17.70;61.10;;;;;;5046074;28;20025;-76
2022/06/03 06:46:52;;;;;;;6.93;3.03;;;17.90;60.20;;;;;;5043786;28;20112;-76
2022/06/03 06:49:24;;;;;;;3.78;1.17;;;18.00;60.40;;;;;;5041459;28;20075;-76
2022/06/03 06:52:29;;;;;;;3.05;1.48;;;18.20;59.20;;;;;;5047413;28;20017;-76
2022/06/03 06:54:59;;;;;;;5.55;3.40;;;18.40;58.60;;;;;;5042518;28;20440;-76
2022/06/03 06:57:32;;;;;;;5.88;3.05;;;18.50;58.60;;;;;;5049532;28;20031;-76
2022/06/03 07:00:18;;;;;;;8.15;2.65;;;18.70;58.50;;;;;;5049082;28;20033;-75
2022/06/03 07:03:12;;;;;;;4.72;2.15;;;18.70;58.50;;;;;;5053018;28;20033;-77
2022/06/03 07:05:46;;;;;;;6.28;3.97;;;18.90;58.30;;;;;;5051648;28;20090;-78
2022/06/03 07:08:40;;;;;;;6.03;3.72;;;18.90;58.20;;;;;;5051617;28;20037;-77
2022/06/03 07:11:20;;;;;;;6.70;3.55;;;19.00;57.40;;;;;;5046996;28;20028;-76
2022/06/03 07:13:52;;;;;;;5.43;2.22;;;19.10;57.70;;;;;;5041499;28;20110;-76
2022/06/03 07:19:54;;;;;;;5.53;3.42;;;19.40;57.50;;;;;;5045011;28;20044;-76
2022/06/03 07:22:29;;;;;;;6.07;2.28;;;19.50;57.80;;;;;;5027514;28;20087;-76
2022/06/03 07:24:57;;;;;;;4.70;3.00;;;19.70;56.90;;;;;;5050549;28;20033;-77
2022/06/03 07:27:28;;;;;;;6.78;2.60;;;19.90;56.40;;;;;;5049664;28;20266;-77
2022/06/03 07:30:08;;;;;;;3.53;1.48;;;20.00;56.00;;;;;;5049552;28;20479;-77
2022/06/03 07:32:49;;;;;;;5.82;2.92;;;20.10;55.90;;;;;;5051220;28;20100;-74
2022/06/03 07:35:53;;;;;;;12.07;2.28;;;20.20;55.80;;;;;;5050867;28;20053;-74
2022/06/03 07:38:28;;;;;;;3.08;1.63;;;20.30;55.30;;;;;;5048815;28;20021;-74
2022/06/03 07:40:59;;;;;;;6.82;2.97;;;20.50;54.80;;;;;;5034133;28;20033;-75
2022/06/03 07:43:47;;;;;;;4.13;2.08;;;20.50;55.00;;;;;;5046018;28;20029;-76
2022/06/03 07:46:26;;;;;;;3.63;1.40;;;20.60;55.20;;;;;;5031291;28;20112;-76
2022/06/03 07:48:52;;;;;;;5.38;1.63;;;20.70;54.60;;;;;;5053367;28;20028;-75
2022/06/03 07:51:31;;;;;;;4.88;2.28;;;20.80;54.30;;;;;;5052707;28;20021;-75
2022/06/03 07:54:12;;;;;;;4.25;2.40;;;20.90;54.10;;;;;;5048826;28;20379;-76
2022/06/03 07:56:38;;;;;;;4.53;1.20;;;20.90;54.00;;;;;;5048743;28;20562;-75
2022/06/03 07:59:26;;;;;;;4.70;1.42;;;20.90;54.30;;;;;;5051029;28;20029;-75
2022/06/03 08:02:11;;;;;;;3.05;1.95;;;21.00;54.10;;;;;;5029464;28;20046;-75
2022/06/03 08:04:38;;;;;;;7.07;3.30;;;21.10;54.30;;;;;;5048682;28;20472;-74
2022/06/03 08:12:57;;;;;;;3.78;2.17;;;21.30;53.60;;;;;;5008059;28;20041;-76
2022/06/03 08:15:28;;;;;;;5.20;2.00;;;21.40;53.80;;;;;;5008635;28;20053;-76
2022/06/03 08:17:55;;;;;;;6.40;1.50;;;21.60;53.70;;;;;;5029185;28;20049;-75
2022/06/03 08:20:24;;;;;;;7.03;2.17;;;21.70;53.30;;;;;;5049721;28;20065;-76
2022/06/03 08:22:50;;;;;;;5.90;1.75;;;21.80;52.90;;;;;;5049764;28;20029;-76
2022/06/03 08:25:25;;;;;;;3.80;1.70;;;21.90;52.90;;;;;;5050394;28;20071;-74
2022/06/03 08:27:52;;;;;;;5.93;2.47;;;22.10;52.20;;;;;;5048995;28;20051;-75
2022/06/03 08:30:23;;;;;;;3.97;1.58;;;22.20;51.60;;;;;;5049998;28;20466;-76
2022/06/03 08:33:04;;;;;;;3.30;1.27;;;22.40;52.00;;;;;;5049153;28;20035;-75
2022/06/03 08:35:38;;;;;;;4.32;1.80;;;22.40;52.10;;;;;;5049534;28;20104;-75
2022/06/03 08:38:04;;;;;;;6.65;1.75;;;22.50;51.80;;;;;;5048584;28;20158;-76
2022/06/03 08:41:02;;;;;;;4.57;1.42;;;22.90;51.90;;;;;;5049493;28;20045;-76
2022/06/03 08:43:39;;;;;;;3.63;2.13;;;23.20;51.20;;;;;;5037726;28;20092;-77
2022/06/03 08:46:15;;;;;;;4.15;2.65;;;23.30;50.90;;;;;;5044760;28;20021;-76
2022/06/03 08:48:45;;;;;;;5.35;1.67;;;23.40;49.90;;;;;;5041901;28;20033;-77
2022/06/03 08:51:48;;;;;;;2.97;1.42;;;23.50;50.70;;;;;;5049751;28;20019;-76
2022/06/03 08:54:32;;;;;;;3.38;1.50;;;23.70;50.40;;;;;;5031424;28;20030;-76
2022/06/03 08:57:11;;;;;;;7.38;3.25;;;23.80;50.20;;;;;;5050481;28;20383;-76
2022/06/03 08:59:42;;;;;;;3.28;1.10;;;23.90;48.80;;;;;;5049606;28;20052;-74
2022/06/03 09:02:18;;;;;;;7.00;1.75;;;24.00;49.20;;;;;;5049247;28;20036;-76
2022/06/03 09:05:04;;;;;;;4.05;1.52;;;24.30;49.70;;;;;;5049379;28;20395;-75
2022/06/03 09:07:57;;;;;;;4.38;1.92;;;24.40;49.10;;;;;;5038945;28;20021;-77
2022/06/03 09:10:41;;;;;;;3.55;1.30;;;24.60;48.40;;;;;;5036733;28;20022;-73
2022/06/03 09:13:54;;;;;;;3.45;1.35;;;24.80;48.50;;;;;;5035370;28;20024;-74
2022/06/03 09:16:20;;;;;;;2.67;1.55;;;24.90;46.00;;;;;;5017534;28;20029;-75
2022/06/03 09:18:54;;;;;;;3.78;0.90;;;24.90;46.60;;;;;;5034299;28;20027;-78
2022/06/03 09:21:31;;;;;;;3.33;1.88;;;25.10;47.80;;;;;;5036062;28;20105;-75
2022/06/03 09:24:10;;;;;;;1.83;1.00;;;25.20;45.20;;;;;;5033520;28;20452;-74
2022/06/03 09:26:39;;;;;;;4.28;1.60;;;25.20;47.50;;;;;;5034623;28;20017;-74
2022/06/03 09:29:10;;;;;;;3.70;1.50;;;25.20;47.20;;;;;;5034715;28;20029;-74
2022/06/03 09:31:37;;;;;;;5.22;1.50;;;25.10;46.30;;;;;;5035698;28;20025;-73
2022/06/03 09:34:05;;;;;;;2.33;1.00;;;25.30;47.70;;;;;;5034377;28;20563;-73
2022/06/03 09:36:33;;;;;;;3.70;1.27;;;25.50;48.10;;;;;;5032540;28;20037;-74
2022/06/03 09:39:09;;;;;;;1.80;0.90;;;25.60;45.30;;;;;;5036016;28;20112;-74
2022/06/03 09:41:39;;;;;;;1.85;1.00;;;25.70;47.50;;;;;;5033012;28;20036;-74
2022/06/03 09:44:06;;;;;;;2.58;0.90;;;25.80;46.10;;;;;;5035825;28;20017;-74
2022/06/03 09:46:34;;;;;;;3.10;1.00;;;25.90;47.30;;;;;;5034396;28;20024;-75
2022/06/03 09:49:01;;;;;;;2.63;1.00;;;25.80;44.40;;;;;;5035529;28;20444;-75
2022/06/03 09:54:27;;;;;;;1.85;0.80;;;25.70;47.90;;;;;;5034398;28;20182;-76
2022/06/03 09:56:56;;;;;;;5.40;1.25;;;25.90;47.60;;;;;;5034495;28;20468;-77
2022/06/03 09:59:24;;;;;;;3.80;1.52;;;25.80;47.90;;;;;;5040594;28;20047;-75
2022/06/03 10:01:51;;;;;;;4.85;1.40;;;25.80;44.90;;;;;;5034585;28;20532;-74
2022/06/03 10:04:21;;;;;;;3.85;1.38;;;25.80;47.90;;;;;;5038971;28;20655;-76
2022/06/03 10:06:47;;;;;;;3.45;1.33;;;25.90;48.60;;;;;;5042085;28;20037;-77
2022/06/03 10:17:49;;;;;;;2.25;1.10;;;26.40;45.30;;;;;;5022398;28;20048;-78
2022/06/03 10:20:16;;;;;;;2.95;1.55;;;26.60;44.90;;;;;;5037011;28;20036;-76
2022/06/03 10:22:44;;;;;;;2.80;1.50;;;26.60;43.60;;;;;;5039113;28;20028;-76
2022/06/03 10:25:13;;;;;;;3.47;1.38;;;26.70;44.30;;;;;;5038620;28;20023;-76
2022/06/03 10:27:39;;;;;;;2.42;1.40;;;26.70;45.50;;;;;;5037204;28;20017;-74
2022/06/03 10:30:05;;;;;;;3.92;1.73;;;26.80;44.10;;;;;;5033022;28;20104;-73
2022/06/03 10:32:33;;;;;;;3.28;1.00;;;26.80;43.50;;;;;;5038818;28;20087;-74
2022/06/03 10:35:13;;;;;;;4.53;1.60;;;26.80;46.50;;;;;;5034569;28;20052;-74
2022/06/03 10:37:47;;;;;;;2.58;1.23;;;26.90;46.80;;;;;;5034210;28;20026;-75
2022/06/03 10:40:14;;;;;;;2.70;1.20;;;27.20;46.10;;;;;;5038799;28;20028;-75
2022/06/03 10:42:44;;;;;;;2.95;1.10;;;27.30;40.10;;;;;;5038479;28;20068;-74
2022/06/03 10:45:10;;;;;;;2.58;1.48;;;27.20;44.80;;;;;;5035509;28;20017;-76
2022/06/03 10:47:40;;;;;;;2.35;1.13;;;27.30;43.10;;;;;;5037448;28;20025;-74
2022/06/03 10:50:13;;;;;;;4.20;1.67;;;27.40;42.70;;;;;;5035136;28;20063;-75
2022/06/03 11:01:29;;;;;;;2.33;1.42;;;27.50;43.40;;;;;;5038603;28;20095;-74
2022/06/03 11:03:56;;;;;;;3.63;1.17;;;27.60;45.90;;;;;;5036696;28;20028;-74
2022/06/03 11:06:25;;;;;;;3.78;2.03;;;27.80;46.10;;;;;;5034718;28;20029;-74
2022/06/03 11:08:59;;;;;;;2.55;1.55;;;28.00;41.50;;;;;;5040141;28;20029;-74
2022/06/03 11:11:41;;;;;;;3.72;1.50;;;28.00;41.50;;;;;;5035419;28;20048;-74
2022/06/03 11:14:25;;;;;;;3.80;1.75;;;28.00;41.90;;;;;;5039324;28;20836;-74
2022/06/03 11:16:58;;;;;;;3.30;0.95;;;27.90;40.20;;;;;;5036286;28;20108;-75
2022/06/03 11:19:24;;;;;;;3.83;1.80;;;27.90;47.00;;;;;;5038705;28;20651;-74
2022/06/03 11:22:24;;;;;;;3.50;1.33;;;28.10;39.80;;;;;;5036966;28;20032;-75
2022/06/03 11:25:03;;;;;;;3.63;0.90;;;28.10;44.80;;;;;;5036433;28;20016;-74
2022/06/03 11:28:00;;;;;;;2.53;1.20;;;28.20;44.00;;;;;;5034470;28;20075;-74
2022/06/03 11:30:52;;;;;;;3.17;1.45;;;28.10;44.50;;;;;;5031992;28;20049;-74
2022/06/03 11:33:25;;;;;;;3.38;1.45;;;28.10;42.10;;;;;;5037191;28;20072;-74
2022/06/03 11:35:52;;;;;;;2.08;1.05;;;28.30;38.90;;;;;;5039973;28;20021;-75
2022/06/03 11:38:35;;;;;;;3.20;1.10;;;28.50;47.20;;;;;;5040835;28;20082;-75
2022/06/03 11:41:09;;;;;;;3.10;1.00;;;28.50;42.80;;;;;;5035676;28;20033;-73
2022/06/03 11:43:41;;;;;;;3.03;1.75;;;28.60;43.30;;;;;;5037065;28;20036;-74
2022/06/03 11:46:15;;;;;;;1.60;1.08;;;28.70;37.70;;;;;;5039449;28;20035;-74
2022/06/03 11:48:43;;;;;;;1.35;0.70;;;28.40;39.50;;;;;;5034458;28;20160;-74
2022/06/03 11:51:11;;;;;;;4.72;1.17;;;28.40;44.90;;;;;;5038959;28;20474;-72
2022/06/03 11:53:48;;;;;;;2.70;0.90;;;28.50;40.70;;;;;;5036068;28;20021;-74
2022/06/03 11:56:18;;;;;;;2.88;1.02;;;28.60;43.60;;;;;;5038647;28;20104;-74
2022/06/03 11:58:50;;;;;;;1.38;0.73;;;28.60;44.00;;;;;;5036601;28;20033;-73
2022/06/03 12:01:56;;;;;;;2.28;0.90;;;28.70;44.20;;;;;;5036778;28;20491;-74
2022/06/03 12:04:49;;;;;;;2.53;1.33;;;29.00;41.50;;;;;;5038637;28;20051;-74
2022/06/03 12:07:22;;;;;;;1.30;0.90;;;29.00;38.30;;;;;;5036104;28;20033;-74
2022/06/03 12:10:01;;;;;;;2.22;0.82;;;29.20;46.80;;;;;;5033488;28;20026;-75
2022/06/03 12:15:32;;;;;;;1.20;0.55;;;29.40;44.40;;;;;;5037505;28;20051;-75
2022/06/03 12:18:09;;;;;;;2.45;0.93;;;29.50;45.10;;;;;;5034843;28;20025;-74
2022/06/03 12:20:43;;;;;;;1.60;0.90;;;29.50;43.70;;;;;;5034959;28;20040;-75
2022/06/03 12:23:12;;;;;;;1.85;1.23;;;29.40;44.40;;;;;;5037318;28;20033;-74
2022/06/03 12:25:40;;;;;;;1.60;0.65;;;29.30;43.20;;;;;;5034480;28;20095;-75
2022/06/03 12:28:15;;;;;;;1.08;0.77;;;29.20;44.60;;;;;;5034921;28;20052;-75
2022/06/03 12:30:56;;;;;;;1.23;0.80;;;29.30;47.20;;;;;;5035539;28;20021;-73
2022/06/03 12:33:37;;;;;;;2.38;0.68;;;29.40;47.00;;;;;;5037285;28;20057;-75
2022/06/03 12:36:47;;;;;;;4.05;1.33;;;29.60;46.60;;;;;;5039895;28;20107;-75
2022/06/03 12:39:18;;;;;;;1.63;0.88;;;29.50;40.40;;;;;;5043678;28;20024;-75
2022/06/03 12:41:44;;;;;;;3.13;1.38;;;29.30;46.30;;;;;;5041313;28;20056;-74
2022/06/03 12:44:35;;;;;;;1.95;0.90;;;29.20;41.10;;;;;;5035217;28;20060;-74
2022/06/03 12:47:29;;;;;;;1.38;0.60;;;29.20;47.60;;;;;;5037780;28;20037;-75
2022/06/03 12:50:17;;;;;;;2.95;1.58;;;29.30;46.40;;;;;;5035108;28;20132;-74
2022/06/03 12:52:44;;;;;;;2.85;1.70;;;29.40;38.60;;;;;;5035763;28;20025;-76
2022/06/03 12:55:21;;;;;;;2.75;0.68;;;29.30;38.20;;;;;;5036016;28;20028;-75
2022/06/03 12:58:13;;;;;;;2.17;1.23;;;29.20;46.70;;;;;;5032593;28;20029;-74
2022/06/03 13:00:56;;;;;;;3.72;0.98;;;29.10;42.20;;;;;;5030133;28;20049;-74
2022/06/03 13:03:25;;;;;;;2.28;0.95;;;29.00;44.40;;;;;;5037441;28;20028;-75
2022/06/03 13:05:53;;;;;;;1.58;0.90;;;29.00;45.30;;;;;;5034462;28;20484;-74
2022/06/03 13:08:28;;;;;;;1.20;0.60;;;29.10;45.20;;;;;;5035560;28;20036;-76
2022/06/03 13:11:09;;;;;;;1.40;0.77;;;29.30;46.90;;;;;;5034578;28;20094;-75
2022/06/03 13:13:42;;;;;;;2.13;0.77;;;29.50;45.00;;;;;;5034788;28;20060;-74
2022/06/03 13:16:31;;;;;;;1.67;0.93;;;29.40;44.70;;;;;;5032554;28;20419;-74
2022/06/03 13:19:22;;;;;;;2.28;1.20;;;29.30;44.40;;;;;;5037961;28;20443;-75
2022/06/03 13:22:00;;;;;;;1.45;0.93;;;29.40;37.90;;;;;;5030234;28;20190;-75
2022/06/03 13:24:35;;;;;;;2.03;0.98;;;29.40;45.30;;;;;;5034093;28;20029;-75
2022/06/03 13:27:28;;;;;;;1.20;0.90;;;29.40;44.60;;;;;;5032353;28;20065;-74
2022/06/03 13:29:55;;;;;;;1.13;0.60;;;29.50;43.00;;;;;;5036168;28;20061;-74
2022/06/03 13:32:57;;;;;;;3.28;1.33;;;29.50;45.20;;;;;;5033831;28;20111;-74
2022/06/03 13:35:38;;;;;;;6.47;1.10;;;29.30;40.80;;;;;;5022697;28;20045;-75
2022/06/03 13:38:10;;;;;;;1.35;0.73;;;29.40;42.40;;;;;;5037065;28;20033;-73
2022/06/03 13:40:36;;;;;;;1.58;0.70;;;29.30;43.20;;;;;;5038237;28;20021;-73
2022/06/03 13:43:24;;;;;;;2.13;1.15;;;29.40;47.20;;;;;;5038877;28;20029;-75
2022/06/03 13:46:03;;;;;;;4.70;1.75;;;29.60;42.20;;;;;;5034255;28;20043;-76
2022/06/03 13:48:42;;;;;;;2.43;0.83;;;29.70;39.10;;;;;;5034923;28;20360;-75
2022/06/03 13:51:29;;;;;;;2.45;1.23;;;29.50;43.40;;;;;;5035446;28;20773;-74
2022/06/03 13:53:59;;;;;;;0.98;0.70;;;29.40;36.60;;;;;;5033073;28;20028;-75
2022/06/03 13:56:28;;;;;;;2.80;1.00;;;29.50;44.70;;;;;;5037151;28;20036;-75
2022/06/03 13:58:56;;;;;;;3.13;1.35;;;29.40;38.60;;;;;;5036706;28;20071;-74
2022/06/03 14:01:27;;;;;;;1.00;0.70;;;29.40;40.80;;;;;;5038039;28;20029;-75
2022/06/03 14:04:20;;;;;;;1.52;0.70;;;29.40;42.10;;;;;;5037614;28;20025;-75
2022/06/03 14:07:08;;;;;;;1.40;0.80;;;29.50;47.70;;;;;;5036018;28;20758;-75
2022/06/03 14:09:45;;;;;;;2.15;0.73;;;29.60;46.20;;;;;;5035627;28;20052;-75
2022/06/03 14:12:32;;;;;;;1.42;0.88;;;29.50;44.30;;;;;;5035341;28;20029;-74
2022/06/03 14:15:17;;;;;;;1.20;0.80;;;29.40;42.30;;;;;;5037058;28;20032;-75
2022/06/03 14:17:45;;;;;;;2.67;1.25;;;29.20;47.80;;;;;;5037581;28;20087;-74
2022/06/03 14:20:25;;;;;;;1.25;0.60;;;29.20;45.40;;;;;;5038901;28;20444;-74
2022/06/03 14:23:07;;;;;;;0.82;0.65;;;29.20;47.90;;;;;;5037622;28;20021;-76
2022/06/03 14:25:39;;;;;;;1.58;0.80;;;29.10;44.80;;;;;;5036468;28;20037;-75
2022/06/03 14:28:12;;;;;;;1.30;0.65;;;28.90;45.50;;;;;;5038502;28;20025;-74
2022/06/03 14:31:01;;;;;;;1.08;0.57;;;28.80;46.20;;;;;;5037380;28;20029;-75
2022/06/03 14:33:38;;;;;;;3.70;1.20;;;28.80;47.50;;;;;;5036112;28;20109;-75
2022/06/03 14:36:06;;;;;;;3.00;1.58;;;28.70;43.40;;;;;;5037256;28;20038;-75
2022/06/03 14:38:41;;;;;;;2.17;1.05;;;28.50;40.90;;;;;;5036439;28;20014;-74
2022/06/03 14:41:10;;;;;;;3.78;0.82;;;28.30;43.00;;;;;;5039229;28;20055;-75
2022/06/03 14:43:37;;;;;;;2.03;0.90;;;28.30;47.60;;;;;;5037377;28;20030;-74
2022/06/03 14:46:12;;;;;;;1.67;0.80;;;28.30;47.40;;;;;;5038321;28;20570;-75
2022/06/03 14:48:45;;;;;;;2.95;0.80;;;28.40;47.40;;;;;;5038829;28;20021;-75